FW8537 Weather Reports


Display with metric or nautical units.
time (UTC)temp
F
wind
direction
speed
MPH
gust
MPH
rain 1hr
in
rain 24hr
in
rain mn
in
humidity
%
barometer
mb
20240518073130 75 115 0.0 0.0 0.00 0.74 0.00 96 1010.4
20240518073053 74 115 0.0 0.0 0.00 0.74 0.00 96 1010.2
20240518072629 75 115 0.0 0.0 0.00 0.74 0.00 96 1010.5
20240518072130 75 115 0.0 0.0 0.00 0.74 0.00 96 1010.5
20240518071629 75 115 0.0 0.0 0.00 0.74 0.00 96 1010.5
20240518071531 74 115 0.0 0.0 0.00 0.74 0.00 96 1010.3
20240518071130 75 115 0.0 1.0 0.00 0.74 0.00 96 1010.7
20240518070632 75 115 0.0 1.0 0.00 0.74 0.00 96 1010.7
20240518070129 75 115 0.0 1.0 0.00 0.74 0.00 96 1010.7
20240518070031 74 115 0.0 1.0 0.00 0.74 0.00 96 1010.5
20240518065629 75 115 0.0 1.0 0.00 0.74 0.00 96 1010.8
20240518065130 75 115 0.0 1.0 0.00 0.74 0.00 96 1010.8
20240518064630 75 115 0.0 1.0 0.00 0.74 0.00 96 1010.8
20240518064504 75 115 0.0 1.0 0.00 0.74 0.00 96 1010.7
20240518064121 75 115 0.0 1.0 0.00 0.74 0.00 96 1010.9
20240518063609 75 115 0.0 1.0 0.00 0.74 0.00 95 1010.9
20240518063108 75 115 0.0 1.0 0.00 0.74 0.00 95 1010.9
20240518063002 74 115 0.0 1.0 0.00 0.74 0.00 95 1010.8
20240518062609 75 114 0.0 1.0 0.00 0.74 0.00 95 1011.0
20240518062356 75 114 1.0 1.0 0.00 0.74 0.00 95 1011.0
20240518061607 76 114 0.0 1.0 0.00 0.74 0.00 96 1011.0
20240518061503 75 113 1.0 1.0 0.00 0.74 0.00 96 1011.0
20240518061401 75 118 0.0 1.0 0.00 0.74 0.00 96 1011.2
20240518060913 75 119 0.0 1.0 0.00 0.74 0.00 96 1011.2
20240518060111 75 118 1.0 2.0 0.00 0.74 0.00 96 1011.2
20240518060040 75 118 0.0 2.0 0.00 0.74 0.00 96 1011.0
20240518055608 75 107 0.0 2.0 0.00 0.74 0.00 96 1011.1
20240518055108 75 19 0.0 1.0 0.00 0.74 0.00 95 1011.1
20240518054610 75 19 0.0 1.0 0.00 0.74 0.00 95 1011.1
20240518054530 75 19 0.0 1.0 0.00 0.74 0.00 95 1010.9
20240518054108 75 19 0.0 1.0 0.00 0.74 0.00 95 1011.0
20240518053609 75 19 0.0 1.0 0.00 0.74 0.00 95 1011.0
20240518053109 75 19 0.0 1.0 0.00 0.74 0.00 95 1011.0
20240518053030 75 19 0.0 1.0 0.00 0.74 0.00 95 1010.8
20240518052605 75 19 0.0 1.0 0.00 0.74 0.00 95 1011.1
20240518052104 76 71 0.0 0.0 0.00 0.74 0.00 95 1011.1
20240518051603 75 71 0.0 0.0 0.00 0.74 0.00 95 1011.1
20240518051531 75 71 0.0 0.0 0.00 0.74 0.00 95 1010.9
20240518051101 76 71 0.0 0.0 0.00 0.74 0.00 95 1011.3
20240518050601 75 71 0.0 0.0 0.00 0.74 0.00 95 1011.3
20240518050353 75 71 0.0 0.0 0.00 0.74 0.00 95 1011.3
20240518050031 75 71 0.0 0.0 0.00 0.74 0.00 95 1011.1
20240518045601 75 71 0.0 0.0 0.00 0.74 0.00 95 1011.2
20240518045101 75 71 0.0 1.0 0.00 0.74 0.00 95 1011.2
20240518044622 75 71 1.0 5.0 0.00 0.74 0.00 95 1011.2
20240518044540 75 71 0.0 5.0 0.00 0.74 0.00 95 1011.0
20240518044101 75 348 1.0 5.0 0.00 0.74 0.00 95 1011.2
20240518043601 75 93 0.0 1.0 0.00 0.74 0.00 95 1011.2
20240518043101 75 98 1.0 2.0 0.00 0.74 0.00 95 1011.2
20240518043030 75 98 0.0 2.0 0.00 0.74 0.00 95 1011.0
20240518042602 75 94 0.0 2.0 0.00 0.74 0.00 95 1011.0
20240518042348 75 122 0.0 0.0 0.00 0.74 0.00 94 1011.0
20240518041603 75 122 0.0 0.0 0.00 0.74 0.00 94 1011.0
20240518041536 74 122 0.0 0.0 0.00 0.74 0.00 94 1010.8
20240518041101 75 122 0.0 0.0 0.02 0.74 0.00 94 1011.0
20240518040601 75 122 0.0 0.0 0.05 0.74 0.00 94 1011.0
20240518040102 75 122 0.0 0.0 0.17 0.74 0.00 94 1011.0
20240518040012 74 122 0.0 0.0 0.17 0.74 0.74 94 1011.1
20240518035602 75 122 0.0 1.0 0.47 0.74 0.74 94 1011.3
20240518035357 75 122 1.0 3.0 0.70 0.74 0.74 93 1011.3
20240518034603 75 122 1.0 3.0 0.74 0.74 0.74 94 1011.3
20240518034557 75 122 0.0 3.0 0.74 0.74 0.74 94 1011.1
20240518034101 75 115 1.0 3.0 0.74 0.74 0.74 94 1011.6
20240518033559 75 84 1.0 3.0 0.74 0.74 0.74 93 1011.6
20240518033057 75 89 2.0 5.0 0.74 0.74 0.74 93 1011.6
20240518033052 75 89 0.0 5.0 0.74 0.74 0.74 93 1011.4
20240518032556 75 120 2.0 5.0 0.74 0.74 0.74 92 1011.7
20240518032350 76 119 1.0 5.0 0.74 0.74 0.74 92 1011.7
20240518031554 77 120 1.0 5.0 0.74 0.74 0.74 92 1011.7
20240518031531 76 124 2.0 5.0 0.74 0.74 0.74 92 1011.5
20240518031053 77 207 1.0 4.0 0.71 0.71 0.71 92 1011.5
20240518030846 77 210 2.0 6.0 0.68 0.68 0.68 91 1011.5
20240518030049 78 250 4.0 10.0 0.53 0.53 0.53 90 1011.5
20240518030014 78 268 2.0 10.0 0.53 0.53 0.53 90 1011.3
20240518025530 80 314 3.0 10.0 0.25 0.25 0.25 88 1011.0
20240518025030 81 276 3.0 7.0 0.03 0.03 0.03 88 1011.0
20240518024531 81 226 3.0 7.0 0.00 0.00 0.00 88 1011.0
20240518024505 81 295 2.0 7.0 0.00 0.00 0.00 88 1010.1
20240518024029 82 338 2.0 7.0 0.00 0.00 0.00 88 1010.3
20240518023530 82 330 1.0 5.0 0.00 0.00 0.00 89 1010.3
20240518023030 82 122 0.0 1.0 0.00 0.00 0.00 88 1010.3
20240518023007 81 122 0.0 0.0 0.00 0.00 0.00 88 1009.4
20240518022529 82 120 1.0 3.0 0.00 0.00 0.00 89 1009.6
20240518022029 82 120 1.0 3.0 0.00 0.00 0.00 89 1009.6
20240518021824 82 113 1.0 2.0 0.00 0.00 0.00 89 1009.6
20240518021029 82 126 1.0 2.0 0.00 0.00 0.00 89 1009.9
20240518020530 82 114 1.0 3.0 0.00 0.00 0.00 89 1009.9
20240518020053 81 118 1.0 3.0 0.00 0.00 0.00 89 1009.8
20240518020026 82 119 1.0 3.0 0.00 0.00 0.00 89 1009.9
20240518015614 82 90 0.0 1.0 0.00 0.00 0.00 89 1009.9
20240518015558 82 110 0.0 0.0 0.00 0.00 0.00 89 1009.9
20240518014607 82 88 1.0 2.0 0.00 0.00 0.00 89 1009.4
20240518014557 81 84 0.0 2.0 0.00 0.00 0.00 89 1009.7
20240518014553 82 84 1.0 2.0 0.00 0.00 0.00 89 1009.9
20240518013521 82 86 1.0 2.0 0.00 0.00 0.00 89 1009.4
20240518013020 82 86 1.0 3.0 0.00 0.00 0.00 89 1009.4
20240518013009 81 86 1.0 3.0 0.00 0.00 0.00 89 1009.1
20240518012516 82 86 2.0 4.0 0.00 0.00 0.00 89 1009.3
20240518012015 82 104 1.0 4.0 0.00 0.00 0.00 89 1009.3
20240518011515 81 117 1.0 3.0 0.00 0.00 0.00 89 1009.3
20240518011503 81 116 1.0 3.0 0.00 0.00 0.00 89 1009.2
20240518011016 81 124 2.0 3.0 0.00 0.00 0.00 89 1009.4
20240518010514 82 122 2.0 4.0 0.00 0.00 0.00 89 1009.4
20240518010014 81 108 2.0 6.0 0.00 0.00 0.00 89 1009.4
20240518010001 81 92 1.0 6.0 0.00 0.00 0.00 89 1008.9
20240518005514 81 79 3.0 6.0 0.00 0.00 0.00 89 1009.1
20240518005015 82 78 2.0 4.0 0.00 0.00 0.00 88 1009.1
20240518004514 82 96 2.0 4.0 0.00 0.00 0.00 88 1009.1
20240518004503 81 83 2.0 4.0 0.00 0.00 0.00 88 1008.7
20240518004013 82 87 3.0 5.0 0.00 0.00 0.00 88 1008.9
20240518003808 82 81 3.0 5.0 0.00 0.00 0.00 87 1008.9
20240518003105 81 82 3.0 6.0 0.00 0.00 0.00 87 1008.7
20240518003013 82 83 3.0 6.0 0.00 0.00 0.00 87 1009.0
20240518002512 82 76 3.0 6.0 0.00 0.00 0.00 86 1009.0
20240518002013 82 77 3.0 6.0 0.00 0.00 0.00 86 1009.0
20240518001601 82 115 2.0 5.0 0.00 0.00 0.00 85 1008.8
20240518001511 83 106 3.0 5.0 0.00 0.00 0.00 85 1008.9
20240518001010 83 85 3.0 7.0 0.00 0.00 0.00 85 1008.9
20240518000511 83 63 3.0 7.0 0.00 0.00 0.00 84 1008.9
20240518000033 83 84 3.0 6.0 0.00 0.00 0.00 84 1008.7
20240518000010 83 78 4.0 6.0 0.00 0.00 0.00 84 1008.7
20240517235510 84 82 4.0 7.0 0.00 0.00 0.00 83 1008.7
20240517235303 84 92 3.0 7.0 0.00 0.00 0.00 82 1008.7
20240517234548 84 85 3.0 6.0 0.00 0.00 0.00 81 1008.5
20240517234510 85 105 3.0 6.0 0.00 0.00 0.00 81 1008.4
20240517234011 85 65 3.0 6.0 0.00 0.00 0.00 80 1008.4
20240517233510 86 46 4.0 8.0 0.00 0.00 0.00 79 1008.4
20240517233010 87 84 3.0 8.0 0.00 0.00 0.00 77 1008.2
20240517233005 87 89 5.0 8.0 0.00 0.00 0.00 77 1008.0
20240517232510 88 79 2.0 6.0 0.00 0.00 0.00 75 1008.2
20240517232008 89 79 2.0 4.0 0.00 0.00 0.00 74 1008.2
20240517231809 89 110 2.0 6.0 0.00 0.00 0.00 73 1008.1
20240517231503 89 129 2.0 4.0 0.00 0.00 0.00 73 1007.9
20240517231007 91 91 2.0 6.0 0.00 0.00 0.00 70 1008.1
20240517230509 94 83 2.0 5.0 0.00 0.00 0.00 57 1008.1
20240517230106 94 212 3.0 8.0 0.00 0.00 0.00 56 1007.9
20240517230047 94 195 2.0 5.0 0.00 0.00 0.00 56 1007.9
20240517230045 94 205 2.0 5.0 0.00 0.00 0.00 56 1007.8
20240517225008 95 231 3.0 8.0 0.00 0.00 0.00 56 1007.9
20240517224506 95 230 2.0 6.0 0.00 0.00 0.00 57 1007.9
20240517224503 94 257 1.0 5.0 0.00 0.00 0.00 57 1007.7
20240517224005 95 160 2.0 5.0 0.00 0.00 0.00 56 1007.9
20240517223507 95 234 1.0 6.0 0.00 0.00 0.00 56 1007.9
20240517223005 95 231 1.0 6.0 0.00 0.00 0.00 57 1007.9
20240517223002 95 230 1.0 6.0 0.00 0.00 0.00 57 1007.7
20240517222506 95 160 1.0 4.0 0.00 0.00 0.00 59 1007.9
20240517222006 94 217 1.0 4.0 0.00 0.00 0.00 59 1007.9
20240517221505 93 219 1.0 4.0 0.00 0.00 0.00 62 1007.9
20240517221503 93 219 1.0 4.0 0.00 0.00 0.00 62 1007.7
20240517221314 92 248 2.0 7.0 0.00 0.00 0.00 66 1007.9
20240517220504 92 137 2.0 7.0 0.00 0.00 0.00 65 1007.9
20240517220005 92 163 2.0 5.0 0.00 0.00 0.00 67 1007.9
20240517215754 92 120 2.0 6.0 0.00 0.00 0.00 67 1007.9
20240517215001 91 112 2.0 6.0 0.00 0.00 0.00 70 1007.9
20240517214545 90 116 1.0 4.0 0.00 0.00 0.00 70 1007.7
20240517214501 91 140 2.0 5.0 0.00 0.00 0.00 70 1007.9
20240517214000 90 120 2.0 5.0 0.00 0.00 0.00 71 1007.9
20240517213502 90 131 3.0 5.0 0.00 0.00 0.00 72 1007.9
20240517213252 89 122 3.0 5.0 0.00 0.00 0.00 71 1007.9
20240517212503 89 131 4.0 7.0 0.00 0.00 0.00 73 1007.9
20240517212253 89 117 4.0 7.0 0.00 0.00 0.00 73 1007.9
20240517211753 89 123 4.0 7.0 0.00 0.00 0.00 73 1007.9
20240517211002 89 117 4.0 7.0 0.00 0.00 0.00 74 1007.9
20240517210500 89 139 4.0 7.0 0.00 0.00 0.00 73 1007.9
20240517210300 89 153 3.0 6.0 0.00 0.00 0.00 74 1008.0
20240517205502 89 121 4.0 8.0 0.00 0.00 0.00 73 1008.0
20240517205002 89 117 5.0 8.0 0.00 0.00 0.00 72 1008.0
20240517204753 89 113 5.0 8.0 0.00 0.00 0.00 71 1008.0
20240517204000 89 133 5.0 8.0 0.00 0.00 0.00 72 1008.0
20240517203459 89 122 6.0 10.0 0.00 0.00 0.00 71 1008.0
20240517203033 88 77 5.0 10.0 0.00 0.00 0.00 72 1007.8
20240517202957 89 104 6.0 10.0 0.00 0.00 0.00 72 1008.1
20240517202455 89 97 6.0 9.0 0.00 0.00 0.00 73 1008.1
20240517201951 89 130 5.0 9.0 0.00 0.00 0.00 73 1008.1
20240517201540 89 107 5.0 7.0 0.00 0.00 0.00 72 1007.9
20240517201452 89 110 4.0 7.0 0.00 0.00 0.00 72 1008.3
20240517200953 89 98 4.0 7.0 0.00 0.00 0.00 71 1008.3
20240517200451 90 93 4.0 8.0 0.00 0.00 0.00 71 1008.3
20240517200030 89 130 3.0 8.0 0.00 0.00 0.00 70 1008.1
20240517195952 90 114 4.0 8.0 0.00 0.00 0.00 70 1008.3
20240517195451 90 128 4.0 7.0 0.00 0.00 0.00 71 1008.3
20240517194950 90 124 6.0 10.0 0.00 0.00 0.00 70 1008.3
20240517194744 89 115 5.0 10.0 0.00 0.00 0.00 70 1008.4
20240517193951 90 108 3.0 6.0 0.00 0.00 0.00 70 1008.4
20240517193451 90 98 3.0 9.0 0.00 0.00 0.00 69 1008.4
20240517193030 90 110 3.0 10.0 0.00 0.00 0.00 70 1008.2
20240517192951 91 112 3.0 10.0 0.00 0.00 0.00 69 1008.5
20240517192449 91 88 2.0 10.0 0.00 0.00 0.00 69 1008.5
20240517191947 91 241 2.0 5.0 0.00 0.00 0.00 67 1008.5
20240517191530 90 223 1.0 6.0 0.00 0.00 0.00 69 1008.3
20240517191447 90 115 2.0 6.0 0.00 0.00 0.00 68 1008.7
20240517190947 91 127 2.0 6.0 0.00 0.00 0.00 66 1008.7
20240517190448 91 269 1.0 5.0 0.00 0.00 0.00 68 1008.7
20240517190034 89 225 0.0 5.0 0.00 0.00 0.00 69 1008.5
20240517185947 90 136 1.0 5.0 0.00 0.00 0.00 69 1008.8
20240517185746 90 113 1.0 4.0 0.00 0.00 0.00 69 1008.8
20240517184946 90 141 2.0 4.0 0.00 0.00 0.00 68 1008.8
20240517184528 89 207 1.0 4.0 0.00 0.00 0.00 69 1008.6
20240517184441 90 134 1.0 3.0 0.00 0.00 0.00 69 1008.6
20240517183943 90 231 2.0 7.0 0.00 0.00 0.00 69 1008.6
20240517183534 89 233 3.0 8.0 0.00 0.00 0.00 72 1008.5
20240517183513 89 156 3.0 7.0 0.00 0.00 0.00 71 1008.6
20240517182437 89 105 3.0 8.0 0.00 0.00 0.00 71 1008.5
20240517181938 89 130 3.0 9.0 0.00 0.00 0.00 71 1008.5
20240517181510 88 121 3.0 12.0 0.00 0.00 0.00 73 1008.3
20240517181438 88 198 4.0 12.0 0.00 0.00 0.00 73 1008.9
20240517180938 88 188 4.0 12.0 0.00 0.00 0.00 75 1008.9
20240517180436 88 119 3.0 7.0 0.00 0.00 0.00 73 1008.9
20240517180222 88 129 3.0 7.0 0.00 0.00 0.00 74 1008.9
20240517175433 87 105 4.0 10.0 0.00 0.00 0.00 74 1008.9
20240517174932 87 138 4.0 10.0 0.00 0.00 0.00 74 1008.9
20240517174502 86 109 3.0 9.0 0.00 0.00 0.00 75 1009.3
20240517174432 87 126 3.0 9.0 0.00 0.00 0.00 75 1009.5
20240517174231 87 124 3.0 6.0 0.00 0.00 0.00 74 1009.5
20240517173430 87 121 2.0 6.0 0.00 0.00 0.00 73 1009.5
20240517173010 87 150 0.0 5.0 0.00 0.00 0.00 72 1010.0
20240517172930 88 150 1.0 5.0 0.00 0.00 0.00 72 1010.2
20240517172430 87 236 1.0 3.0 0.00 0.00 0.00 73 1010.2
20240517171928 87 231 1.0 3.0 0.00 0.00 0.00 71 1010.2
20240517171501 86 126 0.0 3.0 0.00 0.00 0.00 73 1010.3
20240517171430 87 126 1.0 3.0 0.00 0.00 0.00 73 1010.5
20240517170930 87 86 1.0 3.0 0.00 0.00 0.00 71 1010.5
20240517170430 87 233 1.0 3.0 0.00 0.00 0.00 72 1010.5
20240517170001 86 290 1.0 3.0 0.00 0.00 0.00 72 1010.3
20240517165930 87 289 1.0 3.0 0.00 0.00 0.00 72 1010.5
20240517165431 86 219 1.0 4.0 0.00 0.00 0.00 74 1010.5
20240517164928 86 307 1.0 4.0 0.00 0.00 0.00 73 1010.5
20240517164504 85 281 1.0 3.0 0.00 0.00 0.00 73 1010.4
20240517164430 86 281 1.0 3.0 0.00 0.00 0.00 74 1010.6
20240517163929 85 303 1.0 2.0 0.00 0.00 0.00 74 1010.6
20240517163429 85 309 1.0 2.0 0.00 0.00 0.00 74 1010.6
20240517163003 85 257 0.0 3.0 0.00 0.00 0.00 74 1010.9
20240517162930 85 257 1.0 3.0 0.00 0.00 0.00 74 1011.1
20240517162430 85 220 1.0 3.0 0.00 0.00 0.00 74 1011.1
20240517161929 85 231 1.0 3.0 0.00 0.00 0.00 73 1011.1
20240517161502 85 222 0.0 3.0 0.00 0.00 0.00 73 1011.4
20240517161431 85 281 1.0 3.0 0.00 0.00 0.00 73 1011.6
20240517160930 85 290 2.0 5.0 0.00 0.00 0.00 74 1011.6
20240517160430 85 269 2.0 5.0 0.00 0.00 0.00 73 1011.6
20240517160008 85 268 1.0 6.0 0.00 0.00 0.00 73 1011.4
20240517155931 85 289 2.0 6.0 0.00 0.00 0.00 73 1011.6
20240517155716 85 303 2.0 6.0 0.00 0.00 0.00 72 1011.6
20240517154931 86 316 2.0 6.0 0.00 0.00 0.00 72 1011.6
20240517154501 85 307 2.0 6.0 0.00 0.00 0.00 72 1011.5
20240517154430 85 319 3.0 6.0 0.00 0.00 0.00 72 1011.7
20240517153929 86 321 2.0 5.0 0.00 0.00 0.00 71 1011.7
20240517153429 86 342 1.0 4.0 0.00 0.00 0.00 71 1011.7
20240517153001 86 283 1.0 5.0 0.00 0.00 0.00 71 1011.3
20240517152930 86 283 1.0 5.0 0.00 0.00 0.00 71 1011.5
20240517152436 86 281 2.0 5.0 0.00 0.00 0.00 71 1011.5
20240517151929 87 249 1.0 5.0 0.00 0.00 0.00 72 1011.5
20240517151552 86 246 1.0 5.0 0.00 0.00 0.00 71 1011.3
20240517151430 87 236 2.0 5.0 0.00 0.00 0.00 71 1011.5
20240517151224 87 274 2.0 5.0 0.00 0.00 0.00 71 1011.5
20240517150425 87 262 2.0 5.0 0.00 0.00 0.00 70 1011.5
20240517150046 86 256 2.0 5.0 0.00 0.00 0.00 70 1011.3
20240517145927 87 283 1.0 4.0 0.00 0.00 0.00 71 1011.3
20240517145426 86 297 1.0 4.0 0.00 0.00 0.00 72 1011.3
20240517144924 86 231 1.0 3.0 0.00 0.00 0.00 73 1011.3
20240517144535 85 251 1.0 4.0 0.00 0.00 0.00 74 1011.1
20240517144424 85 262 1.0 4.0 0.00 0.00 0.00 75 1011.2
20240517143923 85 288 1.0 4.0 0.00 0.00 0.00 74 1011.2
20240517143423 84 275 1.0 4.0 0.00 0.00 0.00 78 1011.2
20240517143024 83 290 1.0 4.0 0.00 0.00 0.00 80 1011.0
20240517142923 84 284 1.0 4.0 0.00 0.00 0.00 80 1011.2
20240517142420 83 260 1.0 2.0 0.00 0.00 0.00 82 1011.2
20240517142204 83 308 1.0 2.0 0.00 0.00 0.00 82 1011.2
20240517141503 82 239 0.0 2.0 0.00 0.00 0.00 82 1010.7
20240517141403 82 1 0.0 2.0 0.00 0.00 0.00 83 1010.9
20240517140902 82 238 1.0 3.0 0.00 0.00 0.00 83 1010.9
20240517140401 81 307 1.0 3.0 0.00 0.00 0.00 84 1010.9
20240517140002 81 360 0.0 2.0 0.00 0.00 0.00 85 1010.4
20240517135902 81 253 1.0 2.0 0.00 0.00 0.00 85 1010.6
20240517135403 81 259 1.0 2.0 0.00 0.00 0.00 85 1010.6
20240517135151 80 225 1.0 2.0 0.00 0.00 0.00 86 1010.6
20240517134503 80 263 0.0 2.0 0.00 0.00 0.00 87 1010.3
20240517134403 80 221 1.0 2.0 0.00 0.00 0.00 87 1010.5
20240517133901 80 307 1.0 2.0 0.00 0.00 0.00 87 1010.5
20240517133405 79 297 0.0 2.0 0.00 0.00 0.00 88 1010.5
20240517133003 79 295 0.0 2.0 0.00 0.00 0.00 88 1010.3
20240517132902 79 269 1.0 2.0 0.00 0.00 0.00 89 1010.5
20240517132401 79 246 1.0 3.0 0.00 0.00 0.00 89 1010.5
20240517131900 78 251 1.0 3.0 0.00 0.00 0.00 89 1010.5
20240517131504 78 255 1.0 3.0 0.00 0.00 0.00 89 1010.2
20240517131401 78 275 0.0 3.0 0.00 0.00 0.00 89 1010.4
20240517131201 78 238 0.0 3.0 0.00 0.00 0.00 90 1010.4
20240517130402 78 238 1.0 3.0 0.00 0.00 0.00 90 1010.4
20240517130002 77 244 0.0 3.0 0.00 0.00 0.00 90 1009.8
20240517125902 78 243 1.0 3.0 0.00 0.00 0.00 90 1010.0
20240517125401 78 226 1.0 3.0 0.00 0.00 0.00 91 1010.0
20240517124909 77 234 1.0 4.0 0.00 0.00 0.00 91 1010.0
20240517124502 77 226 1.0 4.0 0.00 0.00 0.00 92 1009.7
20240517124401 77 237 0.0 4.0 0.00 0.00 0.00 92 1009.9
20240517123902 77 265 0.0 2.0 0.00 0.00 0.00 93 1009.9
20240517123402 77 252 0.0 2.0 0.00 0.00 0.00 93 1009.9
20240517123002 76 280 0.0 2.0 0.00 0.00 0.00 93 1009.3
20240517122902 77 250 1.0 2.0 0.00 0.00 0.00 93 1009.5
20240517122401 76 245 1.0 2.0 0.00 0.00 0.00 93 1009.5
20240517121901 76 250 1.0 2.0 0.00 0.00 0.00 93 1009.5
20240517121502 76 257 0.0 2.0 0.00 0.00 0.00 93 1009.2
20240517121403 76 257 0.0 2.0 0.00 0.00 0.00 93 1009.4
20240517121235 76 269 0.0 2.0 0.00 0.00 0.00 94 1009.4
20240517120924 76 240 0.0 2.0 0.00 0.00 0.00 94 1009.4
20240517120010 75 276 0.0 1.0 0.00 0.00 0.00 94 1009.2
20240517115903 76 267 0.0 1.0 0.00 0.00 0.00 94 1009.4
20240517115401 75 256 0.0 3.0 0.00 0.00 0.00 94 1009.4
20240517114902 75 266 0.0 3.0 0.00 0.00 0.00 94 1009.4
20240517114633 75 257 0.0 1.0 0.00 0.00 0.00 95 1009.4
20240517114502 75 263 0.0 1.0 0.00 0.00 0.00 94 1009.2
20240517113901 75 257 0.0 1.0 0.00 0.00 0.00 95 1009.4
20240517113440 74 257 0.0 1.0 0.00 0.00 0.00 95 1009.0
20240517113426 75 257 0.0 1.0 0.00 0.00 0.00 95 1009.4
20240517113138 74 257 0.0 1.0 0.00 0.00 0.00 94 1009.2
20240517112401 74 257 0.0 1.0 0.00 0.00 0.00 94 1009.0
20240517111902 74 230 0.0 0.0 0.00 0.00 0.00 95 1009.0
20240517111505 74 230 0.0 0.0 0.00 0.00 0.00 95 1008.7
20240517111403 74 230 0.0 1.0 0.00 0.00 0.00 95 1008.9
20240517110902 74 230 0.0 1.0 0.00 0.00 0.00 95 1008.9
20240517110656 74 230 0.0 0.0 0.00 0.00 0.00 95 1008.9
20240517110008 73 230 0.0 0.0 0.00 0.00 0.00 95 1008.2
20240517105901 74 230 0.0 0.0 0.00 0.00 0.00 95 1008.4
20240517105401 74 230 0.0 0.0 0.00 0.00 0.00 95 1008.4
20240517104901 74 230 0.0 0.0 0.00 0.00 0.00 95 1008.4
20240517104501 73 230 0.0 0.0 0.00 0.00 0.00 95 1007.9
20240517104401 74 229 0.0 0.0 0.00 0.00 0.00 95 1008.0
20240517103902 74 230 0.0 0.0 0.00 0.00 0.00 94 1008.0
20240517103656 74 230 0.0 0.0 0.00 0.00 0.00 94 1008.0
20240517103154 74 230 0.0 1.0 0.00 0.00 0.00 94 1007.9
20240517103137 73 230 0.0 0.0 0.00 0.00 0.00 94 1007.9
20240517102403 74 230 0.0 1.0 0.00 0.00 0.00 94 1007.9
20240517101902 74 230 0.0 1.0 0.00 0.00 0.00 94 1007.9
20240517101531 73 230 0.0 1.0 0.00 0.00 0.00 94 1007.7
20240517101402 74 230 0.0 1.0 0.00 0.00 0.00 94 1007.8
20240517100901 74 230 0.0 1.0 0.00 0.00 0.00 94 1007.8
20240517100402 74 230 0.0 0.0 0.00 0.00 0.00 94 1007.8
20240517100151 74 230 0.0 1.0 0.00 0.00 0.00 94 1007.5
20240517095403 74 230 0.0 2.0 0.00 0.00 0.00 95 1007.5
20240517095146 74 230 0.0 2.0 0.00 0.00 0.00 95 1007.5
20240517094525 74 229 0.0 0.0 0.00 0.00 0.00 95 1007.3
20240517094402 74 229 0.0 0.0 0.00 0.00 0.00 95 1007.4
20240517093902 74 229 0.0 0.0 0.00 0.00 0.00 95 1007.4
20240517093402 74 229 0.0 0.0 0.00 0.00 0.00 94 1007.4
20240517093007 74 229 0.0 0.0 0.00 0.00 0.00 94 1007.6
20240517092901 74 229 0.0 0.0 0.00 0.00 0.00 94 1007.8
20240517092401 74 229 0.0 1.0 0.00 0.00 0.00 94 1007.8
20240517091902 74 229 0.0 1.0 0.00 0.00 0.00 94 1007.8
20240517091501 74 228 0.0 1.0 0.00 0.00 0.00 94 1007.7
20240517091404 74 228 0.0 1.0 0.00 0.00 0.00 94 1007.9
20240517090903 74 210 0.0 0.0 0.00 0.00 0.00 94 1007.9
20240517090401 75 198 0.0 1.0 0.00 0.00 0.00 94 1007.9
20240517090003 74 195 0.0 1.0 0.00 0.00 0.00 94 1007.7
20240517085901 75 193 0.0 1.0 0.00 0.00 0.00 94 1007.9
20240517085403 75 228 0.0 2.0 0.00 0.00 0.00 94 1007.9
20240517085145 75 228 0.0 2.0 0.00 0.00 0.00 94 1007.9
20240517084502 74 225 0.0 2.0 0.00 0.00 0.00 95 1007.7
20240517084402 75 212 0.0 2.0 0.00 0.00 0.00 94 1007.8
20240517083902 75 225 0.0 1.0 0.00 0.00 0.00 94 1007.8
20240517083401 75 240 0.0 1.0 0.00 0.00 0.00 94 1007.8
20240517083143 75 276 0.0 1.0 0.00 0.00 0.00 94 1007.4
20240517083136 74 240 0.0 1.0 0.00 0.00 0.00 94 1007.7
20240517082402 75 277 0.0 1.0 0.00 0.00 0.00 94 1007.4
20240517081902 75 290 0.0 0.0 0.00 0.00 0.00 94 1007.4
20240517081502 74 290 0.0 0.0 0.00 0.00 0.00 94 1007.2
20240517081401 75 290 0.0 0.0 0.00 0.00 0.00 94 1007.4
20240517080902 75 290 0.0 0.0 0.00 0.00 0.00 94 1007.4
20240517080401 75 290 0.0 0.0 0.00 0.00 0.00 94 1007.4
20240517080001 75 290 0.0 0.0 0.00 0.00 0.00 94 1007.1
20240517075901 75 291 0.0 0.0 0.00 0.00 0.00 94 1007.3
20240517075405 75 291 0.0 0.0 0.00 0.00 0.00 94 1007.3
20240517074903 75 290 0.0 0.0 0.00 0.00 0.00 94 1007.3
20240517074503 75 290 0.0 0.0 0.00 0.00 0.00 94 1006.9
20240517074402 76 291 0.0 0.0 0.00 0.00 0.00 94 1007.1
20240517073901 76 290 0.0 0.0 0.00 0.00 0.00 94 1007.1
20240517073652 76 291 0.0 0.0 0.00 0.00 0.00 94 1007.1